createdAt,value
2019-05-05T00:00:45.596Z,100365.73
2019-05-05T00:03:36.007Z,100359.89
2019-05-05T00:06:05.898Z,100365.56
2019-05-05T00:08:35.216Z,100361.72
2019-05-05T00:11:26.397Z,100364.07
2019-05-05T00:14:04.581Z,100362.70
2019-05-05T00:16:39.965Z,100363.67
2019-05-05T00:19:08.962Z,100362.60
2019-05-05T00:21:37.775Z,100361.18
2019-05-05T00:24:07.170Z,100367.28
2019-05-05T00:26:36.156Z,100357.37
2019-05-05T00:29:05.217Z,100361.31
2019-05-05T00:31:35.022Z,100359.56
2019-05-05T00:34:05.018Z,100367.61
2019-05-05T00:36:35.228Z,100371.72
2019-05-05T00:39:05.097Z,100370.85
2019-05-05T00:41:34.621Z,100375.29
2019-05-05T00:44:04.764Z,100372.96
2019-05-05T00:46:54.908Z,100373.96
2019-05-05T00:49:25.020Z,100381.83
2019-05-05T00:51:54.648Z,100383.49
2019-05-05T00:54:24.434Z,100394.59
2019-05-05T00:56:54.510Z,100395.77
2019-05-05T00:59:28.663Z,100391.08
2019-05-05T01:02:19.970Z,100400.06
2019-05-05T01:05:05.463Z,100402.09
2019-05-05T01:07:35.131Z,100401.25
2019-05-05T01:10:05.017Z,100404.58
2019-05-05T01:12:34.868Z,100411.38
2019-05-05T01:15:04.784Z,100413.14
2019-05-05T01:17:34.521Z,100415.70
2019-05-05T01:20:06.797Z,100408.00
2019-05-05T01:22:34.911Z,100414.41
2019-05-05T01:25:05.423Z,100416.08
2019-05-05T01:27:34.806Z,100418.83
2019-05-05T01:30:04.904Z,100425.12
2019-05-05T01:32:37.515Z,100429.00
2019-05-05T01:35:06.855Z,100430.34
2019-05-05T01:37:44.317Z,100433.36
2019-05-05T01:40:41.106Z,100424.97
2019-05-05T01:43:10.013Z,100441.31
2019-05-05T01:45:38.998Z,100445.58
2019-05-05T01:48:07.954Z,100442.55
2019-05-05T01:50:36.950Z,100441.16
2019-05-05T01:53:06.281Z,100450.09
2019-05-05T01:55:35.447Z,100447.13
2019-05-05T01:58:05.016Z,100452.25
2019-05-05T02:00:34.742Z,100460.72
2019-05-05T02:03:04.660Z,100455.90
2019-05-05T02:05:34.780Z,100466.56
2019-05-05T02:08:04.946Z,100465.53
2019-05-05T02:10:34.899Z,100465.08
2019-05-05T02:13:04.758Z,100472.86
2019-05-05T02:15:34.331Z,100483.58
2019-05-05T02:18:04.525Z,100484.08
2019-05-05T02:20:44.877Z,100477.89
2019-05-05T02:23:15.765Z,100478.72
2019-05-05T02:25:44.864Z,100492.31
2019-05-05T02:28:14.971Z,100495.23
2019-05-05T02:31:05.399Z,100493.64
2019-05-05T02:33:35.376Z,100486.84
2019-05-05T02:36:05.572Z,100506.23
2019-05-05T02:38:35.646Z,100505.55
2019-05-05T02:41:05.317Z,100505.17
2019-05-05T02:43:36.329Z,100514.63
2019-05-05T02:46:16.529Z,100512.30
2019-05-05T02:48:47.520Z,100513.78
2019-05-05T02:51:17.611Z,100533.94
2019-05-05T02:53:49.877Z,100528.02
2019-05-05T02:56:25.428Z,100527.03
2019-05-05T02:58:58.465Z,100522.84
2019-05-05T03:01:40.558Z,100529.68
2019-05-05T03:04:10.204Z,100535.60
2019-05-05T03:06:43.764Z,100538.25
2019-05-05T03:09:14.944Z,100544.55
2019-05-05T03:11:48.233Z,100541.56
2019-05-05T03:14:19.657Z,100544.86
2019-05-05T03:16:49.758Z,100544.55
2019-05-05T03:19:20.710Z,100546.52
2019-05-05T03:21:49.887Z,100550.16
2019-05-05T03:24:19.120Z,100546.80
2019-05-05T03:26:48.322Z,100548.64
2019-05-05T03:29:20.155Z,100559.20
2019-05-05T03:31:50.730Z,100560.38
2019-05-05T03:34:21.122Z,100563.34
2019-05-05T03:36:50.870Z,100564.91
2019-05-05T03:39:24.732Z,100568.52
2019-05-05T03:42:07.904Z,100568.52
2019-05-05T03:44:48.339Z,100572.49
2019-05-05T03:47:18.359Z,100575.11
2019-05-05T03:49:47.412Z,100585.65
2019-05-05T03:52:16.406Z,100585.65
2019-05-05T03:54:45.704Z,100581.64
2019-05-05T03:57:15.101Z,100587.38
2019-05-05T03:59:44.845Z,100596.59
2019-05-05T04:02:34.080Z,100599.58
2019-05-05T04:05:14.830Z,100603.52
2019-05-05T04:07:44.043Z,100599.45
2019-05-05T04:10:14.043Z,100597.67
2019-05-05T04:12:43.637Z,100600.69
2019-05-05T04:15:15.756Z,100598.12
2019-05-05T04:17:50.912Z,100593.76
2019-05-05T04:20:33.583Z,100603.37
2019-05-05T04:23:03.747Z,100611.91
2019-05-05T04:25:32.507Z,100612.31
2019-05-05T04:28:01.665Z,100606.77
2019-05-05T04:30:30.535Z,100611.14
2019-05-05T04:32:59.356Z,100625.38
2019-05-05T04:35:28.594Z,100625.66
2019-05-05T04:37:57.530Z,100630.37
2019-05-05T04:40:26.431Z,100626.58
2019-05-05T04:42:55.292Z,100635.73
2019-05-05T04:45:24.349Z,100640.05
2019-05-05T04:47:57.290Z,100641.09
2019-05-05T04:50:47.802Z,100641.88
2019-05-05T04:53:21.443Z,100646.23
2019-05-05T04:55:50.317Z,100650.98
2019-05-05T04:58:19.135Z,100655.55
2019-05-05T05:00:48.045Z,100652.06
2019-05-05T05:03:25.488Z,100649.35
2019-05-05T05:06:19.528Z,100652.36
2019-05-05T05:08:48.352Z,100653.43
2019-05-05T05:11:17.234Z,100659.98
2019-05-05T05:13:46.434Z,100655.07
2019-05-05T05:16:15.459Z,100668.34
2019-05-05T05:18:44.748Z,100661.55
2019-05-05T05:21:14.482Z,100655.56
2019-05-05T05:23:44.373Z,100655.32
2019-05-05T05:26:13.990Z,100661.00
2019-05-05T05:28:44.773Z,100655.42
2019-05-05T05:31:14.149Z,100657.76
2019-05-05T05:33:43.720Z,100654.66
2019-05-05T05:36:14.396Z,100662.05
2019-05-05T05:38:45.218Z,100662.53
2019-05-05T05:41:20.386Z,100660.47
2019-05-05T05:44:04.846Z,100665.79
2019-05-05T05:46:54.481Z,100663.30
2019-05-05T05:49:29.903Z,100667.00
2019-05-05T05:52:12.102Z,100673.26
2019-05-05T05:54:29.479Z,100671.76
2019-05-05T05:56:58.434Z,100671.37
2019-05-05T05:59:27.443Z,100672.48
2019-05-05T06:02:09.000Z,100673.09
2019-05-05T06:04:26.749Z,100671.97
2019-05-05T06:06:55.648Z,100673.67
2019-05-05T06:09:24.607Z,100683.20
2019-05-05T06:11:54.213Z,100683.20
2019-05-05T06:14:24.695Z,100681.20
2019-05-05T06:16:54.026Z,100679.05
2019-05-05T06:19:24.610Z,100677.75
2019-05-05T06:21:54.261Z,100683.31
2019-05-05T06:24:24.006Z,100686.00
2019-05-05T06:26:54.695Z,100685.89
2019-05-05T06:29:23.970Z,100692.08
2019-05-05T06:31:53.825Z,100694.31
2019-05-05T06:34:24.448Z,100691.55
2019-05-05T06:36:53.749Z,100694.88
2019-05-05T06:39:24.160Z,100696.61
2019-05-05T06:42:04.484Z,100700.27
2019-05-05T06:44:49.865Z,100707.76
2019-05-05T06:47:23.595Z,100708.77
2019-05-05T06:49:54.082Z,100707.73
2019-05-05T06:52:24.737Z,100699.72
2019-05-05T06:54:54.293Z,100705.34
2019-05-05T06:57:24.052Z,100699.39
2019-05-05T06:59:54.388Z,100703.98
2019-05-05T07:02:23.876Z,100703.76
2019-05-05T07:04:54.626Z,100704.73
2019-05-05T07:07:23.834Z,100705.83
2019-05-05T07:09:54.285Z,100705.05
2019-05-05T07:12:24.147Z,100702.72
2019-05-05T07:14:53.799Z,100712.42
2019-05-05T07:17:24.505Z,100706.36
2019-05-05T07:19:54.362Z,100695.95
2019-05-05T07:22:24.413Z,100703.72
2019-05-05T07:24:54.305Z,100700.59
2019-05-05T07:27:24.305Z,100700.39
2019-05-05T07:29:54.140Z,100700.11
2019-05-05T07:32:24.543Z,100687.50
2019-05-05T07:35:25.189Z,100674.70
2019-05-05T07:37:54.160Z,100675.48
2019-05-05T07:40:24.130Z,100685.13
2019-05-05T07:42:54.051Z,100691.75
2019-05-05T07:45:25.741Z,100691.14
2019-05-05T07:47:54.439Z,100691.05
2019-05-05T07:50:31.668Z,100694.93
2019-05-05T07:52:54.657Z,100683.58
2019-05-05T07:55:23.824Z,100694.52
2019-05-05T07:57:53.896Z,100687.88
2019-05-05T08:00:24.042Z,100694.29
2019-05-05T08:02:54.451Z,100686.46
2019-05-05T08:05:24.585Z,100693.94
2019-05-05T08:07:54.006Z,100689.42
2019-05-05T08:10:24.144Z,100689.12
2019-05-05T08:12:54.209Z,100694.52
2019-05-05T08:15:24.222Z,100690.52
2019-05-05T08:18:15.129Z,100696.54
2019-05-05T08:20:46.725Z,100706.67
2019-05-05T08:23:30.283Z,100706.66
2019-05-05T08:26:11.036Z,100708.78
2019-05-05T08:29:08.054Z,100714.55
2019-05-05T08:32:05.389Z,100720.16
2019-05-05T08:34:34.384Z,100720.89
2019-05-05T08:37:04.366Z,100719.22
2019-05-05T08:39:34.481Z,100725.91
2019-05-05T08:42:04.408Z,100731.58
2019-05-05T08:44:34.324Z,100720.70
2019-05-05T08:47:04.425Z,100724.36
2019-05-05T08:49:34.688Z,100720.11
2019-05-05T08:52:04.291Z,100722.14
2019-05-05T08:54:34.335Z,100726.05
2019-05-05T08:57:04.211Z,100720.70
2019-05-05T08:59:33.807Z,100713.06
2019-05-05T09:02:04.563Z,100733.30
2019-05-05T09:04:34.078Z,100724.86
2019-05-05T09:07:05.022Z,100727.44
2019-05-05T09:09:33.777Z,100719.58
2019-05-05T09:12:04.544Z,100727.06
2019-05-05T09:14:34.559Z,100720.50
2019-05-05T09:17:04.407Z,100725.86
2019-05-05T09:19:34.457Z,100735.36
2019-05-05T09:22:06.704Z,100726.59
2019-05-05T09:24:47.599Z,100726.16
2019-05-05T09:27:36.222Z,100725.95
2019-05-05T09:30:06.028Z,100737.68
2019-05-05T09:32:34.831Z,100733.70
2019-05-05T09:35:04.726Z,100737.52
2019-05-05T09:37:34.068Z,100736.80
2019-05-05T09:40:04.524Z,100724.39
2019-05-05T09:42:34.161Z,100734.02
2019-05-05T09:45:04.731Z,100733.91
2019-05-05T09:47:34.400Z,100741.14
2019-05-05T09:50:03.957Z,100737.69
2019-05-05T09:52:33.805Z,100731.62
2019-05-05T09:55:03.846Z,100741.13
2019-05-05T09:57:34.399Z,100740.44
2019-05-05T10:00:14.009Z,100745.13
2019-05-05T10:02:44.202Z,100747.42
2019-05-05T10:05:14.672Z,100743.86
2019-05-05T10:07:44.219Z,100738.60
2019-05-05T10:10:13.882Z,100742.39
2019-05-05T10:12:44.561Z,100742.24
2019-05-05T10:15:13.990Z,100731.61
2019-05-05T10:17:42.909Z,100727.08
2019-05-05T10:20:11.868Z,100733.55
2019-05-05T10:22:51.871Z,100733.55
2019-05-05T10:25:55.164Z,100729.94
2019-05-05T10:28:33.947Z,100733.43
2019-05-05T10:31:04.623Z,100731.50
2019-05-05T10:33:59.889Z,100730.80
2019-05-05T10:36:28.844Z,100729.00
2019-05-05T10:39:04.404Z,100732.37
2019-05-05T10:41:33.813Z,100718.14
2019-05-05T10:44:03.647Z,100725.41
2019-05-05T10:46:34.124Z,100728.45
2019-05-05T10:49:03.661Z,100730.72
2019-05-05T10:51:34.633Z,100729.78
2019-05-05T10:54:04.014Z,100722.48
2019-05-05T10:56:34.553Z,100727.17
2019-05-05T10:59:03.980Z,100724.91
2019-05-05T11:01:32.846Z,100734.75
2019-05-05T11:04:02.098Z,100733.34
2019-05-05T11:06:31.025Z,100738.85
2019-05-05T11:09:00.181Z,100729.78
2019-05-05T11:11:29.137Z,100732.28
2019-05-05T11:13:58.217Z,100734.84
2019-05-05T11:16:27.255Z,100736.62
2019-05-05T11:18:56.236Z,100726.65
2019-05-05T11:21:25.148Z,100724.64
2019-05-05T11:23:54.156Z,100722.36
2019-05-05T11:26:24.699Z,100726.39
2019-05-05T11:28:53.914Z,100719.33
2019-05-05T11:31:23.943Z,100706.40
2019-05-05T11:34:10.710Z,100721.16
2019-05-05T11:36:58.712Z,100720.77
2019-05-05T11:39:27.820Z,100713.92
2019-05-05T11:41:56.916Z,100710.67
2019-05-05T11:44:26.054Z,100707.42
2019-05-05T11:46:55.050Z,100708.64
2019-05-05T11:49:24.545Z,100704.58
2019-05-05T11:51:54.345Z,100707.06
2019-05-05T11:54:24.604Z,100706.58
2019-05-05T11:56:54.091Z,100704.86
2019-05-05T11:59:23.809Z,100706.98
2019-05-05T12:01:55.036Z,100705.09
2019-05-05T12:04:24.114Z,100688.06
2019-05-05T12:06:53.258Z,100686.19
2019-05-05T12:09:31.423Z,100704.64
2019-05-05T12:12:00.326Z,100704.64
2019-05-05T12:14:31.098Z,100705.22
2019-05-05T12:17:00.165Z,100699.30
2019-05-05T12:19:29.285Z,100706.02
2019-05-05T12:21:58.180Z,100706.88
2019-05-05T12:24:30.906Z,100708.04
2019-05-05T12:27:21.971Z,100703.94
2019-05-05T12:29:54.800Z,100704.31
2019-05-05T12:32:24.220Z,100705.16
2019-05-05T12:34:53.869Z,100706.72
2019-05-05T12:37:23.668Z,100712.42
2019-05-05T12:39:54.583Z,100703.26
2019-05-05T12:42:24.245Z,100713.11
2019-05-05T12:45:04.394Z,100715.91
2019-05-05T12:47:58.951Z,100714.21
2019-05-05T12:50:28.118Z,100715.28
2019-05-05T12:52:57.054Z,100704.40
2019-05-05T12:55:39.038Z,100705.88
2019-05-05T12:57:58.856Z,100701.77
2019-05-05T13:00:27.762Z,100700.70
2019-05-05T13:02:56.792Z,100716.24
2019-05-05T13:05:25.802Z,100713.36
2019-05-05T13:07:54.723Z,100706.42
2019-05-05T13:10:24.368Z,100707.50
2019-05-05T13:12:54.292Z,100704.03
2019-05-05T13:15:24.717Z,100695.77
2019-05-05T13:17:54.294Z,100696.50
2019-05-05T13:20:38.428Z,100694.84
2019-05-05T13:23:15.873Z,100701.79
2019-05-05T13:25:59.407Z,100696.84
2019-05-05T13:28:28.597Z,100703.14
2019-05-05T13:30:57.537Z,100693.98
2019-05-05T13:33:26.511Z,100708.26
2019-05-05T13:35:55.600Z,100702.02
2019-05-05T13:38:24.519Z,100702.43
2019-05-05T13:40:54.409Z,100702.86
2019-05-05T13:43:23.841Z,100693.77
2019-05-05T13:46:10.452Z,100697.14
2019-05-05T13:48:39.523Z,100693.39
2019-05-05T13:51:08.728Z,100702.80
2019-05-05T13:53:37.656Z,100688.22
2019-05-05T13:56:11.519Z,100692.16
2019-05-05T13:58:37.472Z,100696.06
2019-05-05T14:01:09.594Z,100691.03
2019-05-05T14:03:37.026Z,100692.53
2019-05-05T14:06:06.064Z,100689.48
2019-05-05T14:08:36.443Z,100687.14
2019-05-05T14:11:05.695Z,100687.27
2019-05-05T14:13:34.684Z,100687.08
2019-05-05T14:16:03.959Z,100676.92
2019-05-05T14:18:33.044Z,100678.64
2019-05-05T14:21:01.991Z,100678.28
2019-05-05T14:23:34.557Z,100674.99
2019-05-05T14:26:03.889Z,100675.77
2019-05-05T14:28:34.029Z,100672.84
2019-05-05T14:31:14.074Z,100672.36
2019-05-05T14:33:55.336Z,100682.13
2019-05-05T14:37:04.954Z,100672.09
2019-05-05T14:39:34.185Z,100676.27
2019-05-05T14:42:04.472Z,100676.09
2019-05-05T14:44:34.299Z,100681.22
2019-05-05T14:47:03.368Z,100679.02
2019-05-05T14:49:33.895Z,100670.72
2019-05-05T14:52:04.456Z,100679.23
2019-05-05T14:54:34.160Z,100676.84
2019-05-05T14:57:04.573Z,100679.88
2019-05-05T14:59:34.068Z,100677.84
2019-05-05T15:02:04.278Z,100678.48
2019-05-05T15:04:34.930Z,100671.95
2019-05-05T15:07:15.456Z,100670.09
2019-05-05T15:09:51.368Z,100682.67
2019-05-05T15:12:36.955Z,100676.67
2019-05-05T15:15:07.360Z,100669.72
2019-05-05T15:17:37.092Z,100670.42
2019-05-05T15:20:07.647Z,100669.62
2019-05-05T15:22:36.684Z,100663.85
2019-05-05T15:25:05.965Z,100663.87
2019-05-05T15:27:35.033Z,100661.59
2019-05-05T15:30:04.640Z,100654.56
2019-05-05T15:32:34.402Z,100666.95
2019-05-05T15:35:04.058Z,100673.91
2019-05-05T15:37:33.119Z,100664.72
2019-05-05T15:40:04.027Z,100669.44
2019-05-05T15:42:33.489Z,100672.84
2019-05-05T15:45:03.988Z,100675.25
2019-05-05T15:47:34.326Z,100669.50
2019-05-05T15:50:04.493Z,100673.22
2019-05-05T15:52:35.132Z,100676.52
2019-05-05T15:55:04.801Z,100674.61
2019-05-05T15:57:33.826Z,100671.44
2019-05-05T16:00:03.433Z,100670.95
2019-05-05T16:02:32.595Z,100660.24
2019-05-05T16:05:01.483Z,100671.41
2019-05-05T16:07:30.587Z,100671.74
2019-05-05T16:09:59.606Z,100672.53
2019-05-05T16:12:34.146Z,100672.05
2019-05-05T16:15:10.139Z,100673.06
2019-05-05T16:17:47.799Z,100668.73
2019-05-05T16:20:24.290Z,100672.25
2019-05-05T16:23:27.039Z,100672.48
2019-05-05T16:25:56.020Z,100672.75
2019-05-05T16:28:25.226Z,100668.80
2019-05-05T16:30:56.125Z,100668.23
2019-05-05T16:33:24.802Z,100674.27
2019-05-05T16:35:53.723Z,100673.46
2019-05-05T16:38:24.043Z,100674.27
2019-05-05T16:40:53.757Z,100684.66
2019-05-05T16:43:24.720Z,100684.66
2019-05-05T16:45:53.847Z,100707.22
2019-05-05T16:48:25.346Z,100707.78
2019-05-05T16:50:54.125Z,100714.09
2019-05-05T16:53:36.083Z,100714.98
2019-05-05T16:56:07.172Z,100725.52
2019-05-05T16:58:36.269Z,100723.98
2019-05-05T17:01:07.987Z,100725.00
2019-05-05T17:03:37.054Z,100731.42
2019-05-05T17:06:06.084Z,100723.60
2019-05-05T17:08:35.211Z,100717.36
2019-05-05T17:11:04.138Z,100716.70
2019-05-05T17:13:44.319Z,100715.55
2019-05-05T17:16:30.179Z,100722.04
2019-05-05T17:19:08.377Z,100727.53
2019-05-05T17:21:55.269Z,100721.72
2019-05-05T17:24:24.274Z,100724.05
2019-05-05T17:26:54.857Z,100722.04
2019-05-05T17:29:24.135Z,100726.67
2019-05-05T17:31:53.972Z,100724.94
2019-05-05T17:34:24.704Z,100720.61
2019-05-05T17:36:54.142Z,100721.50
2019-05-05T17:39:24.750Z,100720.52
2019-05-05T17:42:05.121Z,100725.86
2019-05-05T17:44:46.538Z,100716.84
2019-05-05T17:47:19.878Z,100717.16
2019-05-05T17:50:14.417Z,100723.15
2019-05-05T17:52:53.764Z,100720.92
2019-05-05T17:55:30.749Z,100728.42
2019-05-05T17:58:02.554Z,100731.05
2019-05-05T18:00:34.267Z,100735.38
2019-05-05T18:03:04.381Z,100733.39
2019-05-05T18:05:51.593Z,100740.58
2019-05-05T18:08:38.192Z,100738.05
2019-05-05T18:11:13.911Z,100737.36
2019-05-05T18:13:46.497Z,100741.36
2019-05-05T18:16:16.940Z,100747.40
2019-05-05T18:18:45.918Z,100741.98
2019-05-05T18:21:14.910Z,100751.98
2019-05-05T18:23:44.252Z,100755.67
2019-05-05T18:26:13.751Z,100754.98
2019-05-05T18:28:44.751Z,100759.67
2019-05-05T18:31:13.935Z,100759.36
2019-05-05T18:33:42.954Z,100762.69
2019-05-05T18:36:14.035Z,100765.08
2019-05-05T18:38:44.486Z,100760.11
2019-05-05T18:41:20.447Z,100771.12
2019-05-05T18:44:03.831Z,100776.50
2019-05-05T18:46:33.902Z,100776.47
2019-05-05T18:49:04.370Z,100775.49
2019-05-05T18:51:34.771Z,100771.99
2019-05-05T18:54:04.278Z,100774.98
2019-05-05T18:56:34.752Z,100775.49
2019-05-05T18:59:06.436Z,100781.30
2019-05-05T19:01:59.603Z,100779.47
2019-05-05T19:04:42.973Z,100789.83
2019-05-05T19:07:19.618Z,100784.52
2019-05-05T19:09:53.791Z,100787.52
2019-05-05T19:12:19.048Z,100788.89
2019-05-05T19:14:47.953Z,100789.36
2019-05-05T19:17:16.877Z,100796.73
2019-05-05T19:19:49.394Z,100804.92
2019-05-05T19:22:18.441Z,100801.24
2019-05-05T19:24:47.351Z,100805.61
2019-05-05T19:27:16.272Z,100802.76
2019-05-05T19:29:46.262Z,100801.42
2019-05-05T19:32:15.546Z,100804.63
2019-05-05T19:34:44.515Z,100801.16
2019-05-05T19:37:13.992Z,100803.51
2019-05-05T19:39:43.034Z,100800.01
2019-05-05T19:42:14.283Z,100799.83
2019-05-05T19:44:43.780Z,100798.64
2019-05-05T19:47:18.724Z,100805.46
2019-05-05T19:50:09.600Z,100803.98
2019-05-05T19:52:38.637Z,100807.30
2019-05-05T19:55:07.893Z,100813.33
2019-05-05T19:57:36.802Z,100806.12
2019-05-05T20:00:07.355Z,100809.65
2019-05-05T20:02:36.221Z,100811.78
2019-05-05T20:05:05.464Z,100801.92
2019-05-05T20:07:34.566Z,100803.95
2019-05-05T20:10:04.135Z,100804.92
2019-05-05T20:12:33.568Z,100802.94
2019-05-05T20:15:04.262Z,100809.26
2019-05-05T20:17:35.127Z,100797.02
2019-05-05T20:20:05.433Z,100806.58
2019-05-05T20:22:34.885Z,100806.58
2019-05-05T20:25:04.392Z,100805.20
2019-05-05T20:27:34.339Z,100798.16
2019-05-05T20:30:06.482Z,100802.86
2019-05-05T20:32:56.042Z,100804.19
2019-05-05T20:35:35.425Z,100803.50
2019-05-05T20:38:10.504Z,100806.21
2019-05-05T20:40:40.992Z,100808.56
2019-05-05T20:43:10.064Z,100806.21
2019-05-05T20:45:39.164Z,100803.87
2019-05-05T20:48:08.042Z,100801.88
2019-05-05T20:50:37.281Z,100801.20
2019-05-05T20:53:06.228Z,100805.25
2019-05-05T20:55:35.064Z,100805.93
2019-05-05T20:58:04.854Z,100805.25
2019-05-05T21:00:34.736Z,100801.28
2019-05-05T21:03:04.731Z,100808.64
2019-05-05T21:05:34.471Z,100807.27
2019-05-05T21:08:04.859Z,100817.91
2019-05-05T21:10:34.747Z,100800.05
2019-05-05T21:13:04.233Z,100811.92
2019-05-05T21:15:33.969Z,100803.44
2019-05-05T21:18:04.868Z,100803.91
2019-05-05T21:20:34.722Z,100795.20
2019-05-05T21:23:17.531Z,100800.55
2019-05-05T21:25:53.842Z,100796.83
2019-05-05T21:28:24.109Z,100793.33
2019-05-05T21:30:53.970Z,100801.84
2019-05-05T21:33:23.897Z,100804.84
2019-05-05T21:35:55.064Z,100796.50
2019-05-05T21:38:23.458Z,100796.54
2019-05-05T21:40:52.359Z,100799.86
2019-05-05T21:43:21.330Z,100788.21
2019-05-05T21:45:50.296Z,100799.26
2019-05-05T21:48:19.159Z,100791.89
2019-05-05T21:50:54.259Z,100796.68
2019-05-05T21:53:41.568Z,100798.48
2019-05-05T21:56:47.816Z,100804.55
2019-05-05T21:59:17.427Z,100801.97
2019-05-05T22:01:49.267Z,100801.97
2019-05-05T22:04:17.091Z,100811.59
2019-05-05T22:06:46.067Z,100811.63
2019-05-05T22:09:14.995Z,100803.66
2019-05-05T22:11:44.232Z,100798.31
2019-05-05T22:14:14.031Z,100795.25
2019-05-05T22:16:44.579Z,100795.25
2019-05-05T22:19:14.565Z,100803.27
2019-05-05T22:21:50.867Z,100800.69
2019-05-05T22:24:20.295Z,100803.22
2019-05-05T22:26:49.508Z,100803.08
2019-05-05T22:29:18.568Z,100802.58
2019-05-05T22:31:47.464Z,100807.41
2019-05-05T22:34:16.336Z,100808.09
2019-05-05T22:36:45.300Z,100811.45
2019-05-05T22:39:17.075Z,100809.11
2019-05-05T22:41:48.320Z,100809.47
2019-05-05T22:44:17.255Z,100804.95
2019-05-05T22:46:46.554Z,100808.60
2019-05-05T22:49:15.549Z,100810.73
2019-05-05T22:51:44.910Z,100803.73
2019-05-05T22:54:14.904Z,100817.91
2019-05-05T22:56:44.846Z,100817.91
2019-05-05T22:59:14.001Z,100811.56
2019-05-05T23:01:42.928Z,100807.92
2019-05-05T23:04:25.827Z,100808.60
2019-05-05T23:06:58.882Z,100815.28
2019-05-05T23:09:27.705Z,100812.94
2019-05-05T23:11:56.784Z,100810.27
2019-05-05T23:14:28.918Z,100817.77
2019-05-05T23:17:11.550Z,100811.59
2019-05-05T23:19:45.432Z,100816.90
2019-05-05T23:22:27.503Z,100803.22
2019-05-05T23:25:15.395Z,100809.21
2019-05-05T23:27:47.264Z,100823.40
2019-05-05T23:30:17.286Z,100811.70
2019-05-05T23:32:46.881Z,100811.50
2019-05-05T23:35:17.354Z,100809.81
2019-05-05T23:37:46.585Z,100805.84
2019-05-05T23:40:21.683Z,100813.22
2019-05-05T23:42:50.926Z,100816.86
2019-05-05T23:45:19.989Z,100809.03
2019-05-05T23:47:48.877Z,100819.25
2019-05-05T23:50:17.867Z,100808.20
2019-05-05T23:52:46.865Z,100823.94
2019-05-05T23:55:15.835Z,100811.92
2019-05-05T23:57:44.880Z,100818.92
